Time;durP1;ratioP1;P1;durP2;ratioP2;P2;SDS_P1;SDS_P2;PMS_P1;PMS_P2;Temp;Humidity;BMP_temperature;BMP_pressure;BME280_temperature;BME280_humidity;BME280_pressure;Samples;Min_cycle;Max_cycle;Signal;HPM_P1;HPM_P2
2022/11/17 00:00:21;;;;;;;6.67;4.77;;;;;;;8.26;nan;96366.13;5037118;28;20233;-69
2022/11/17 00:02:47;;;;;;;8.80;5.30;;;;;;;8.22;nan;96354.44;5037180;28;20207;-69
2022/11/17 00:05:14;;;;;;;7.53;5.00;;;;;;;8.20;nan;96357.31;5037161;28;20212;-69
2022/11/17 00:07:42;;;;;;;8.67;5.30;;;;;;;8.23;nan;96356.84;5037034;28;20202;-69
2022/11/17 00:10:08;;;;;;;8.20;4.97;;;;;;;8.26;nan;96348.41;5037187;28;20202;-69
2022/11/17 00:15:18;;;;;;;9.27;4.63;;;;;;;8.29;nan;96336.53;5037041;28;20177;-69
2022/11/17 00:17:47;;;;;;;8.00;4.80;;;;;;;8.28;nan;96340.22;5036967;28;20216;-69
2022/11/17 00:22:58;;;;;;;9.00;5.40;;;;;;;8.24;nan;96323.22;5036628;28;20243;-70
2022/11/17 00:25:25;;;;;;;9.17;4.87;;;;;;;8.26;nan;96329.06;5036798;28;20205;-72
2022/11/17 00:27:51;;;;;;;7.70;5.00;;;;;;;8.20;nan;96335.31;5036679;28;20202;-69
2022/11/17 00:35:53;;;;;;;10.50;4.87;;;;;;;8.19;nan;96337.16;5036348;28;20565;-69
2022/11/17 00:38:20;;;;;;;8.00;5.20;;;;;;;8.17;nan;96330.50;5036527;28;20212;-69
2022/11/17 00:40:46;;;;;;;8.40;5.30;;;;;;;8.17;nan;96333.16;5036352;28;20233;-69
2022/11/17 00:43:13;;;;;;;5.87;4.87;;;;;;;8.20;nan;96330.84;5036115;28;20293;-69
2022/11/17 00:45:39;;;;;;;7.53;4.87;;;;;;;8.24;nan;96328.53;5036956;28;20216;-70
2022/11/17 00:48:06;;;;;;;7.80;4.77;;;;;;;8.26;nan;96324.59;5036361;28;20206;-70
2022/11/17 00:50:32;;;;;;;8.93;5.07;;;;;;;8.31;nan;96321.19;5036291;28;20245;-70
2022/11/17 00:52:59;;;;;;;8.27;4.80;;;;;;;8.33;nan;96324.41;5036297;28;20206;-69
2022/11/17 00:55:25;;;;;;;5.70;5.03;;;;;;;8.32;nan;96318.31;5036209;28;20305;-69
2022/11/17 00:57:51;;;;;;;6.60;4.17;;;;;;;8.43;nan;96311.28;5035808;28;20638;-69
2022/11/17 01:00:20;;;;;;;5.87;4.10;;;;;;;8.54;nan;96315.63;5035738;28;20697;-69
2022/11/17 01:02:46;;;;;;;5.07;3.90;;;;;;;8.59;nan;96297.97;5035795;28;20669;-69
2022/11/17 01:05:12;;;;;;;5.20;3.50;;;;;;;8.73;nan;96293.09;5035322;28;20208;-69
2022/11/17 01:07:39;;;;;;;4.30;3.60;;;;;;;8.74;nan;96295.47;5035664;28;20212;-69
2022/11/17 01:10:05;;;;;;;4.77;3.40;;;;;;;8.75;nan;96296.28;5035611;28;20213;-69
2022/11/17 01:12:32;;;;;;;3.73;3.03;;;;;;;8.83;nan;96293.19;5035633;28;20673;-69
2022/11/17 01:14:58;;;;;;;7.17;3.37;;;;;;;8.81;nan;96284.66;5035585;28;20665;-72
2022/11/17 01:17:25;;;;;;;6.43;3.60;;;;;;;8.87;nan;96286.34;5035444;28;20220;-72
2022/11/17 01:19:51;;;;;;;3.77;3.03;;;;;;;8.81;nan;96266.13;5036218;28;20542;-69
2022/11/17 01:22:17;;;;;;;3.87;3.30;;;;;;;8.84;nan;96261.13;5035553;28;20233;-69
2022/11/17 01:24:44;;;;;;;8.00;3.67;;;;;;;8.81;nan;96258.16;5035737;28;20206;-69
2022/11/17 01:27:10;;;;;;;6.30;3.03;;;;;;;8.79;nan;96260.28;5035583;28;20206;-69
2022/11/17 01:29:36;;;;;;;3.47;2.97;;;;;;;8.79;nan;96255.00;5035658;28;20202;-69
2022/11/17 01:32:03;;;;;;;6.50;3.13;;;;;;;8.79;nan;96249.69;5035494;28;20222;-69
2022/11/17 01:34:29;;;;;;;3.50;3.20;;;;;;;8.78;nan;96240.16;5035244;28;20212;-69
2022/11/17 01:39:39;;;;;;;3.70;2.80;;;;;;;8.94;nan;96239.22;5035223;28;20207;-70
2022/11/17 01:42:13;;;;;;;3.53;2.80;;;;;;;8.89;nan;96229.38;5034984;28;20225;-69
2022/11/17 01:45:24;;;;;;;4.70;3.13;;;;;;;8.86;nan;96223.78;5035347;28;20193;-70
2022/11/17 01:48:02;;;;;;;3.67;2.90;;;;;;;8.85;nan;96222.19;5035286;28;20194;-72
2022/11/17 01:50:37;;;;;;;3.83;2.60;;;;;;;8.86;nan;96215.81;5035888;28;20217;-72
2022/11/17 01:53:09;;;;;;;4.63;2.60;;;;;;;8.86;nan;96213.16;5035204;28;20194;-72
2022/11/17 01:55:50;;;;;;;3.67;3.03;;;;;;;8.83;nan;96208.41;5034886;28;20193;-69
2022/11/17 01:58:25;;;;;;;3.10;2.53;;;;;;;8.83;nan;96209.19;5035124;28;20195;-69
2022/11/17 02:00:53;;;;;;;4.80;3.07;;;;;;;8.85;nan;96211.56;5034611;28;20232;-69
2022/11/17 02:03:20;;;;;;;3.77;2.70;;;;;;;8.87;nan;96193.59;5034961;28;20304;-69
2022/11/17 02:06:03;;;;;;;6.60;2.80;;;;;;;8.89;nan;96191.47;5034824;28;20206;-70
2022/11/17 02:08:32;;;;;;;6.53;3.03;;;;;;;8.91;nan;96184.09;5033666;28;20186;-69
2022/11/17 02:11:04;;;;;;;4.10;2.90;;;;;;;8.91;nan;96174.28;5033818;28;20221;-70
2022/11/17 02:13:31;;;;;;;4.17;2.60;;;;;;;9.00;nan;96162.16;5034708;28;20195;-72
2022/11/17 02:15:57;;;;;;;2.90;2.67;;;;;;;8.98;nan;96158.16;5034891;28;20206;-72
2022/11/17 02:18:24;;;;;;;4.67;2.80;;;;;;;8.95;nan;96156.00;5033637;28;20210;-69
2022/11/17 02:21:10;;;;;;;6.33;2.60;;;;;;;8.99;nan;96152.63;5034120;28;20312;-69
2022/11/17 02:23:58;;;;;;;3.60;2.40;;;;;;;8.97;nan;96144.09;5034617;28;20581;-69
2022/11/17 02:26:40;;;;;;;2.73;2.30;;;;;;;9.00;nan;96138.31;5034251;28;20642;-69
2022/11/17 02:29:21;;;;;;;2.93;2.60;;;;;;;8.89;nan;96135.84;5034711;28;20190;-69
2022/11/17 02:31:50;;;;;;;5.50;3.53;;;;;;;8.88;nan;96132.38;5034322;28;20232;-69
2022/11/17 02:35:05;;;;;;;3.10;2.53;;;;;;;8.79;nan;96119.88;5034357;28;20308;-69
2022/11/17 02:37:50;;;;;;;3.40;2.90;;;;;;;8.75;nan;96116.94;5017832;28;20665;-69
2022/11/17 02:40:26;;;;;;;3.00;2.70;;;;;;;8.66;nan;96122.94;5033220;28;20190;-69
2022/11/17 02:45:58;;;;;;;3.60;2.97;;;;;;;8.67;nan;96100.72;5033232;28;20620;-69
2022/11/17 02:48:32;;;;;;;4.67;2.60;;;;;;;8.61;nan;96072.59;5033855;28;20186;-69
2022/11/17 02:50:59;;;;;;;4.40;2.80;;;;;;;8.57;nan;96058.25;5033719;28;20631;-69
2022/11/17 02:53:28;;;;;;;4.93;2.90;;;;;;;8.52;nan;96082.06;5034039;28;20202;-69
2022/11/17 02:55:54;;;;;;;5.97;3.17;;;;;;;8.41;nan;96080.41;5034606;28;20575;-69
2022/11/17 02:58:21;;;;;;;5.03;2.93;;;;;;;8.33;nan;96080.84;5033598;28;20202;-69
2022/11/17 03:01:17;;;;;;;6.13;2.97;;;;;;;8.35;nan;96068.16;5034289;28;20260;-70
2022/11/17 03:04:11;;;;;;;6.77;3.20;;;;;;;8.22;nan;96071.22;5032398;28;20554;-69
2022/11/17 03:06:46;;;;;;;4.80;3.23;;;;;;;8.22;nan;96085.25;5032848;28;20202;-69
2022/11/17 03:09:21;;;;;;;3.37;2.80;;;;;;;8.25;nan;96099.84;5033850;28;20576;-69
2022/11/17 03:12:02;;;;;;;4.37;2.77;;;;;;;8.26;nan;96112.81;5033680;28;20229;-69
2022/11/17 03:14:56;;;;;;;5.90;3.20;;;;;;;8.30;nan;96115.75;5033714;28;20253;-69
2022/11/17 03:17:46;;;;;;;5.50;2.90;;;;;;;8.34;nan;96119.50;5033333;28;20194;-70
2022/11/17 03:20:19;;;;;;;4.43;2.73;;;;;;;8.29;nan;96112.31;5033558;28;20198;-70
2022/11/17 03:23:07;;;;;;;4.43;2.60;;;;;;;8.51;nan;96106.97;5033286;28;20309;-70
2022/11/17 03:25:37;;;;;;;3.17;2.77;;;;;;;8.63;nan;96091.66;5033633;28;20556;-70
2022/11/17 03:28:07;;;;;;;3.53;2.60;;;;;;;8.74;nan;96085.41;5033197;28;20217;-70
2022/11/17 03:30:40;;;;;;;3.10;2.50;;;;;;;8.80;nan;96092.31;5033466;28;20232;-70
2022/11/17 03:33:15;;;;;;;3.23;2.70;;;;;;;8.78;nan;96099.75;5032322;28;20208;-70
2022/11/17 03:35:47;;;;;;;4.03;3.00;;;;;;;8.72;nan;96095.44;5033095;28;20724;-70
2022/11/17 03:38:17;;;;;;;3.70;2.70;;;;;;;8.71;nan;96101.81;5031940;28;20641;-70
2022/11/17 03:40:46;;;;;;;2.87;2.67;;;;;;;8.65;nan;96098.31;5033262;28;20240;-70
2022/11/17 03:43:16;;;;;;;3.43;2.73;;;;;;;8.65;nan;96079.75;5032229;28;20228;-70
2022/11/17 03:45:47;;;;;;;4.80;2.60;;;;;;;8.73;nan;96083.81;5033092;28;20661;-70
2022/11/17 03:48:53;;;;;;;4.47;2.50;;;;;;;8.72;nan;96085.66;5033383;28;20194;-70
2022/11/17 03:51:29;;;;;;;2.50;2.20;;;;;;;8.76;nan;96089.41;5030190;28;20217;-70
2022/11/17 03:53:56;;;;;;;2.87;2.30;;;;;;;8.82;nan;96085.72;5033355;28;20194;-70
2022/11/17 03:56:41;;;;;;;2.50;2.30;;;;;;;8.93;nan;96081.28;5033202;28;20210;-70
2022/11/17 03:59:26;;;;;;;3.63;2.57;;;;;;;8.88;nan;96083.91;5033237;28;20235;-70
2022/11/17 04:01:53;;;;;;;2.83;2.40;;;;;;;8.87;nan;96082.31;5031618;28;20235;-70
2022/11/17 04:04:22;;;;;;;2.90;2.30;;;;;;;8.84;nan;96088.13;5033108;28;20201;-70
2022/11/17 04:06:51;;;;;;;3.27;2.60;;;;;;;8.79;nan;96080.13;5033143;28;20211;-70
2022/11/17 04:09:18;;;;;;;4.63;2.47;;;;;;;8.80;nan;96073.78;5032832;28;20550;-70
2022/11/17 04:17:12;;;;;;;3.13;2.47;;;;;;;8.87;nan;96077.00;5033247;28;20177;-70
2022/11/17 04:19:38;;;;;;;3.37;1.97;;;;;;;8.90;nan;96065.88;5032656;28;20265;-70
2022/11/17 04:22:05;;;;;;;4.23;2.80;;;;;;;8.88;nan;96073.31;5032617;28;20237;-70
2022/11/17 04:24:31;;;;;;;4.37;2.30;;;;;;;8.90;nan;96077.28;5032976;28;20206;-70
2022/11/17 04:29:53;;;;;;;2.23;2.00;;;;;;;8.93;nan;96065.38;4952778;29;20700;-70
2022/11/17 04:32:19;;;;;;;2.43;1.70;;;;;;;9.00;nan;96064.09;5013208;28;20248;-70
2022/11/17 04:34:47;;;;;;;3.23;2.30;;;;;;;9.01;nan;96062.25;5032737;28;20208;-70
2022/11/17 04:37:17;;;;;;;3.93;2.10;;;;;;;9.03;nan;96065.44;5032727;28;20264;-70
2022/11/17 04:39:45;;;;;;;2.90;2.20;;;;;;;9.04;nan;96061.72;5032737;28;20210;-70
2022/11/17 04:42:10;;;;;;;2.70;2.20;;;;;;;9.08;nan;96054.84;5036057;28;20229;-70
2022/11/17 04:44:37;;;;;;;3.43;2.20;;;;;;;9.11;nan;96055.16;5036276;28;20210;-70
2022/11/17 04:47:05;;;;;;;4.20;2.20;;;;;;;9.07;nan;96055.91;5036244;28;20209;-70
2022/11/17 04:49:32;;;;;;;2.60;1.93;;;;;;;9.06;nan;96056.97;5036227;28;20596;-70
2022/11/17 04:51:58;;;;;;;3.47;2.20;;;;;;;9.00;nan;96055.38;5035713;28;20230;-70
2022/11/17 04:54:25;;;;;;;4.40;2.40;;;;;;;9.02;nan;96055.91;5035969;28;20210;-70
2022/11/17 04:56:53;;;;;;;2.40;2.20;;;;;;;9.09;nan;96056.47;5036110;28;20212;-70
2022/11/17 04:59:20;;;;;;;2.67;2.10;;;;;;;9.05;nan;96055.41;5036001;28;20210;-70
2022/11/17 05:01:47;;;;;;;2.20;2.00;;;;;;;9.04;nan;96067.03;5035636;28;20279;-70
2022/11/17 05:04:54;;;;;;;3.97;2.50;;;;;;;9.06;nan;96062.28;5035493;28;20217;-70
2022/11/17 05:07:02;;;;;;;3.03;1.97;;;;;;;9.14;nan;96043.25;5035481;28;20209;-70
2022/11/17 05:09:28;;;;;;;3.13;2.30;;;;;;;9.15;nan;96053.56;5035393;28;20669;-70
2022/11/17 05:14:39;;;;;;;2.90;2.33;;;;;;;9.03;nan;96071.53;5035743;28;20180;-70
2022/11/17 05:17:04;;;;;;;2.60;2.00;;;;;;;9.03;nan;96074.19;5035359;28;20206;-70
2022/11/17 05:19:33;;;;;;;3.30;2.40;;;;;;;9.01;nan;96083.47;5035583;28;20206;-70
2022/11/17 05:22:00;;;;;;;2.53;2.33;;;;;;;8.95;nan;96076.50;5035030;28;20234;-70
2022/11/17 05:24:26;;;;;;;3.07;2.73;;;;;;;8.95;nan;96073.88;5035596;28;20213;-70
2022/11/17 05:26:53;;;;;;;4.60;2.37;;;;;;;8.96;nan;96064.88;5035404;28;20206;-70
2022/11/17 05:29:21;;;;;;;4.67;2.40;;;;;;;8.97;nan;96071.78;5035244;28;20206;-70
2022/11/17 05:31:48;;;;;;;2.40;2.20;;;;;;;8.94;nan;96073.09;5034988;28;20226;-70
2022/11/17 05:34:17;;;;;;;2.70;2.30;;;;;;;8.96;nan;96078.91;5035283;28;20209;-70
2022/11/17 05:36:43;;;;;;;2.77;2.30;;;;;;;8.98;nan;96081.31;5035182;28;20210;-70
2022/11/17 05:39:10;;;;;;;3.30;2.30;;;;;;;9.04;nan;96082.94;5035912;28;20300;-70
2022/11/17 05:41:37;;;;;;;2.57;2.30;;;;;;;9.00;nan;96082.66;5034416;28;20273;-70
2022/11/17 05:44:04;;;;;;;2.60;2.30;;;;;;;9.10;nan;96087.22;5034776;28;20297;-70
2022/11/17 05:46:31;;;;;;;3.57;2.40;;;;;;;9.15;nan;96081.94;5034611;28;20212;-70
2022/11/17 05:48:57;;;;;;;4.27;2.40;;;;;;;9.22;nan;96082.50;5034785;28;20246;-70
2022/11/17 05:51:24;;;;;;;3.30;2.27;;;;;;;9.18;nan;96092.00;5034638;28;20226;-70
2022/11/17 05:53:50;;;;;;;3.00;2.67;;;;;;;9.17;nan;96083.28;5034936;28;20232;-70
2022/11/17 05:56:17;;;;;;;2.70;2.00;;;;;;;9.30;nan;96074.06;5034896;28;20208;-70
2022/11/17 05:58:46;;;;;;;2.80;2.60;;;;;;;9.24;nan;96067.16;5034763;28;20289;-70
2022/11/17 06:01:15;;;;;;;2.93;2.20;;;;;;;9.29;nan;96075.13;5034432;28;20230;-70
2022/11/17 06:03:46;;;;;;;4.10;2.20;;;;;;;9.21;nan;96084.38;5034522;28;20202;-70
2022/11/17 06:06:13;;;;;;;3.30;2.70;;;;;;;9.20;nan;96079.31;5034287;28;20273;-70
2022/11/17 06:08:39;;;;;;;2.83;2.23;;;;;;;9.18;nan;96082.22;5034127;28;20209;-70
2022/11/17 06:11:06;;;;;;;3.77;2.37;;;;;;;9.19;nan;96075.84;5034111;28;20309;-70
2022/11/17 06:13:32;;;;;;;2.23;2.03;;;;;;;9.16;nan;96089.66;5033913;28;20206;-70
2022/11/17 06:16:04;;;;;;;2.80;2.27;;;;;;;9.19;nan;96086.47;5033878;28;20291;-70
2022/11/17 06:18:45;;;;;;;4.80;2.17;;;;;;;9.30;nan;96071.41;5033966;28;20197;-70
2022/11/17 06:21:15;;;;;;;3.90;2.30;;;;;;;9.25;nan;96077.50;5033022;28;20732;-70
2022/11/17 06:23:44;;;;;;;2.90;2.37;;;;;;;9.28;nan;96084.13;5033996;28;20285;-70
2022/11/17 06:26:11;;;;;;;4.67;2.47;;;;;;;9.29;nan;96060.03;5033733;28;20211;-70
2022/11/17 06:28:40;;;;;;;3.47;2.63;;;;;;;9.33;nan;96073.56;5033438;28;20205;-70
2022/11/17 06:31:07;;;;;;;6.00;2.80;;;;;;;9.30;nan;96085.47;5033895;28;20226;-70
2022/11/17 06:33:35;;;;;;;3.30;2.13;;;;;;;9.37;nan;96077.28;5033156;28;20217;-70
2022/11/17 06:36:05;;;;;;;2.73;2.03;;;;;;;9.35;nan;96082.84;5033169;28;20217;-70
2022/11/17 06:38:34;;;;;;;4.27;2.20;;;;;;;9.26;nan;96083.56;5032954;28;20669;-70
2022/11/17 06:41:01;;;;;;;3.17;2.23;;;;;;;9.23;nan;96086.75;5033384;28;20228;-70
2022/11/17 06:43:28;;;;;;;1.90;1.70;;;;;;;9.30;nan;96088.13;5033560;28;20216;-70
2022/11/17 06:45:54;;;;;;;3.43;2.00;;;;;;;9.20;nan;96097.88;5033360;28;20213;-70
2022/11/17 06:48:26;;;;;;;3.33;1.73;;;;;;;9.30;nan;96103.22;5033020;28;20210;-70
2022/11/17 06:50:54;;;;;;;2.73;1.60;;;;;;;9.24;nan;96105.03;5033572;28;20229;-70
2022/11/17 06:53:25;;;;;;;2.30;1.70;;;;;;;9.25;nan;96101.34;5033245;28;20665;-71
2022/11/17 06:55:52;;;;;;;3.47;1.90;;;;;;;9.25;nan;96095.25;5033368;28;20190;-70
2022/11/17 06:58:18;;;;;;;3.00;1.80;;;;;;;9.34;nan;96078.59;5033637;28;20210;-70
2022/11/17 07:00:44;;;;;;;1.67;1.47;;;;;;;9.53;nan;96074.44;5034028;28;20225;-70
2022/11/17 07:03:11;;;;;;;1.87;1.60;;;;;;;9.54;nan;96089.28;5032365;28;20226;-70
2022/11/17 07:05:38;;;;;;;3.70;1.70;;;;;;;9.61;nan;96091.69;5033351;28;20206;-71
2022/11/17 07:08:07;;;;;;;2.10;1.53;;;;;;;9.64;nan;96091.97;5033310;28;20212;-71
2022/11/17 07:10:34;;;;;;;1.97;1.57;;;;;;;9.70;nan;96071.56;5033165;28;20234;-70
2022/11/17 07:13:01;;;;;;;2.23;1.83;;;;;;;9.59;nan;96067.28;5033186;28;20228;-70
2022/11/17 07:15:27;;;;;;;2.77;1.80;;;;;;;9.53;nan;96070.97;5032794;28;20206;-70
2022/11/17 07:17:54;;;;;;;2.37;1.80;;;;;;;9.50;nan;96084.75;5032968;28;20209;-70
2022/11/17 07:20:20;;;;;;;3.03;1.73;;;;;;;9.44;nan;96091.91;5032785;28;20236;-71
2022/11/17 07:22:47;;;;;;;2.13;1.93;;;;;;;9.38;nan;96084.97;5032416;28;20232;-71
2022/11/17 07:25:13;;;;;;;3.63;1.93;;;;;;;9.40;nan;96085.50;5032691;28;20221;-71
2022/11/17 07:27:40;;;;;;;1.93;1.40;;;;;;;9.62;nan;96086.13;5032689;28;20220;-70
2022/11/17 07:30:08;;;;;;;4.07;1.50;;;;;;;9.60;nan;96079.50;5032767;28;20202;-70
2022/11/17 07:32:35;;;;;;;3.90;1.50;;;;;;;9.57;nan;96077.34;5032636;28;20260;-71
2022/11/17 07:35:04;;;;;;;3.33;2.10;;;;;;;9.67;nan;96083.50;5032646;28;20635;-70
2022/11/17 07:37:32;;;;;;;3.77;1.13;;;;;;;9.81;nan;96078.47;5032700;28;20264;-70
2022/11/17 07:39:59;;;;;;;3.00;1.10;;;;;;;9.88;nan;96068.41;5032445;28;20236;-71
2022/11/17 07:42:25;;;;;;;1.73;1.00;;;;;;;9.97;nan;96069.50;5033217;28;20221;-70
2022/11/17 07:44:51;;;;;;;1.20;1.10;;;;;;;9.99;nan;96056.75;5032595;28;20217;-70
2022/11/17 07:47:18;;;;;;;1.90;1.10;;;;;;;9.99;nan;96062.06;5032899;28;20683;-70
2022/11/17 07:49:44;;;;;;;2.57;1.20;;;;;;;9.98;nan;96071.91;5032851;28;20202;-70
2022/11/17 07:52:10;;;;;;;1.47;0.90;;;;;;;10.05;nan;96071.69;5032795;28;20222;-70
2022/11/17 07:54:37;;;;;;;3.60;1.00;;;;;;;10.06;nan;96067.97;5032829;28;20206;-71
2022/11/17 07:57:03;;;;;;;1.80;1.03;;;;;;;10.08;nan;96065.81;5032424;28;20205;-71
2022/11/17 07:59:30;;;;;;;1.53;1.20;;;;;;;10.26;nan;96074.09;5032924;28;20220;-70
2022/11/17 08:01:56;;;;;;;2.10;1.27;;;;;;;10.34;nan;96076.22;5032547;28;20236;-71
2022/11/17 08:04:23;;;;;;;2.17;1.20;;;;;;;10.32;nan;96069.59;5032172;28;20302;-70
2022/11/17 08:06:49;;;;;;;1.93;1.10;;;;;;;10.36;nan;96063.47;5032651;28;20214;-71
2022/11/17 08:09:16;;;;;;;1.77;1.03;;;;;;;10.39;nan;96070.91;5032234;28;20665;-70
2022/11/17 08:11:42;;;;;;;3.17;0.90;;;;;;;10.38;nan;96079.13;5032568;28;20217;-71
2022/11/17 08:14:09;;;;;;;3.97;1.20;;;;;;;10.43;nan;96079.13;5032991;28;20210;-70
2022/11/17 08:16:35;;;;;;;2.63;1.13;;;;;;;10.49;nan;96080.72;5036234;28;20202;-71
2022/11/17 08:19:03;;;;;;;2.03;1.23;;;;;;;10.66;nan;96081.25;5036169;28;20206;-71
2022/11/17 08:21:29;;;;;;;1.83;1.10;;;;;;;10.79;nan;96083.38;5035837;28;20671;-70
2022/11/17 08:23:55;;;;;;;1.57;0.90;;;;;;;10.85;nan;96074.31;5037122;28;20186;-71
2022/11/17 08:26:23;;;;;;;5.67;0.80;;;;;;;10.97;nan;96074.84;5036476;28;20206;-71
2022/11/17 08:28:50;;;;;;;2.40;0.60;;;;;;;11.12;nan;96079.34;5036769;28;20217;-70
2022/11/17 08:31:16;;;;;;;1.77;0.50;;;;;;;11.22;nan;96082.78;5036064;28;20230;-70
2022/11/17 08:33:43;;;;;;;1.33;0.70;;;;;;;11.16;nan;96073.19;5036363;28;20202;-70
2022/11/17 08:36:10;;;;;;;1.70;0.50;;;;;;;11.19;nan;96072.66;5036453;28;20206;-71
2022/11/17 08:38:36;;;;;;;0.93;0.50;;;;;;;11.31;nan;96081.16;5036436;28;20209;-71
2022/11/17 08:41:05;;;;;;;2.53;0.80;;;;;;;11.36;nan;96070.50;5035919;28;20615;-70
2022/11/17 08:43:31;;;;;;;1.77;0.60;;;;;;;11.30;nan;96063.56;5035611;28;20697;-71
2022/11/17 08:45:58;;;;;;;2.83;1.17;;;;;;;11.36;nan;96080.31;5036035;28;20542;-71
2022/11/17 08:48:24;;;;;;;1.63;0.70;;;;;;;11.30;nan;96081.41;5035815;28;20512;-70
2022/11/17 08:50:51;;;;;;;1.77;0.70;;;;;;;11.27;nan;96085.41;5035880;28;20232;-70
2022/11/17 08:53:20;;;;;;;3.13;0.70;;;;;;;11.22;nan;96101.38;5035743;28;20198;-70
2022/11/17 08:55:46;;;;;;;2.13;0.60;;;;;;;11.24;nan;96104.56;5035989;28;20228;-70
2022/11/17 08:58:13;;;;;;;1.43;0.60;;;;;;;11.27;nan;96104.81;5035751;28;20206;-71
2022/11/17 09:00:40;;;;;;;0.97;0.70;;;;;;;11.38;nan;96108.25;5035438;28;20236;-70
2022/11/17 09:03:10;;;;;;;1.97;0.73;;;;;;;11.40;nan;96108.75;5035752;28;20226;-70
2022/11/17 09:05:47;;;;;;;2.13;0.70;;;;;;;11.40;nan;96098.13;5035854;28;20271;-71
2022/11/17 09:08:14;;;;;;;1.57;0.60;;;;;;;11.41;nan;96109.56;5035701;28;20198;-70
2022/11/17 09:10:41;;;;;;;1.07;0.60;;;;;;;11.50;nan;96119.41;5035471;28;20236;-70
2022/11/17 09:13:08;;;;;;;3.80;0.60;;;;;;;11.50;nan;96119.41;5035682;28;20202;-71
2022/11/17 09:15:34;;;;;;;1.60;0.60;;;;;;;11.58;nan;96126.78;5035640;28;20261;-71
2022/11/17 09:18:02;;;;;;;1.67;0.60;;;;;;;11.61;nan;96125.50;5035652;28;20210;-70
2022/11/17 09:20:30;;;;;;;1.17;0.60;;;;;;;11.71;nan;96126.25;5035368;28;20226;-71
2022/11/17 09:22:59;;;;;;;1.37;0.83;;;;;;;11.77;nan;96124.38;5035056;28;20226;-70
2022/11/17 09:25:25;;;;;;;0.33;0.33;;;;;;;11.80;nan;96124.63;5035464;28;20215;-71
2022/11/17 09:27:52;;;;;;;1.30;0.60;;;;;;;11.85;nan;96121.94;5034514;28;20213;-70
2022/11/17 09:30:20;;;;;;;2.30;0.70;;;;;;;11.83;nan;96134.72;5034938;28;20207;-71
2022/11/17 09:32:50;;;;;;;0.73;0.50;;;;;;;11.94;nan;96141.59;5035243;28;20570;-70
2022/11/17 09:35:17;;;;;;;2.40;0.87;;;;;;;12.10;nan;96140.47;5035083;28;20716;-70
2022/11/17 09:37:44;;;;;;;0.97;0.50;;;;;;;12.14;nan;96149.50;5034922;28;20667;-70
2022/11/17 09:40:15;;;;;;;1.07;0.70;;;;;;;12.27;nan;96140.91;5035285;28;20211;-70
2022/11/17 09:42:42;;;;;;;0.93;0.60;;;;;;;12.33;nan;96139.78;5034835;28;20213;-71
2022/11/17 09:45:28;;;;;;;3.37;0.70;;;;;;;12.39;nan;96154.66;5035212;28;20210;-71
2022/11/17 09:48:10;;;;;;;1.17;0.60;;;;;;;12.41;nan;96157.88;5035239;28;20202;-70
2022/11/17 09:50:39;;;;;;;1.47;0.60;;;;;;;12.41;nan;96157.06;5035003;28;20233;-71
2022/11/17 09:53:14;;;;;;;2.10;0.63;;;;;;;12.32;nan;96148.88;5035054;28;20204;-70
2022/11/17 09:55:48;;;;;;;1.73;0.80;;;;;;;12.27;nan;96148.09;5034596;28;20554;-70
2022/11/17 09:58:32;;;;;;;1.93;0.90;;;;;;;12.28;nan;96152.34;5034392;28;20220;-71
2022/11/17 10:00:59;;;;;;;1.80;0.77;;;;;;;12.22;nan;96159.59;5034580;28;20227;-70
2022/11/17 10:03:32;;;;;;;1.63;1.10;;;;;;;12.22;nan;96169.44;5034753;28;20238;-71
2022/11/17 10:06:01;;;;;;;3.53;1.03;;;;;;;12.14;nan;96162.81;5034759;28;20193;-71
2022/11/17 10:08:59;;;;;;;3.93;1.10;;;;;;;12.16;nan;96166.00;5034468;28;20204;-70
2022/11/17 10:11:34;;;;;;;2.20;0.70;;;;;;;12.36;nan;96173.09;5034529;28;20226;-70
2022/11/17 10:14:13;;;;;;;1.70;0.80;;;;;;;12.48;nan;96168.22;5034435;28;20192;-70
2022/11/17 10:16:43;;;;;;;2.43;0.90;;;;;;;12.62;nan;96164.66;5034347;28;20192;-70
2022/11/17 10:19:17;;;;;;;1.63;0.70;;;;;;;12.79;nan;96161.63;5033668;28;20196;-71
2022/11/17 10:21:45;;;;;;;1.97;0.80;;;;;;;12.71;nan;96154.97;5040716;28;20237;-70
2022/11/17 10:24:11;;;;;;;2.23;0.87;;;;;;;12.68;nan;96160.88;5038585;28;20238;-71
2022/11/17 10:26:46;;;;;;;3.17;0.83;;;;;;;12.84;nan;96150.91;5032447;28;20205;-70
2022/11/17 10:29:14;;;;;;;3.30;1.10;;;;;;;12.87;nan;96153.00;5034204;28;20213;-70
2022/11/17 10:31:44;;;;;;;1.80;1.00;;;;;;;12.89;nan;96159.66;5033976;28;20255;-71
2022/11/17 10:34:30;;;;;;;2.80;1.10;;;;;;;12.82;nan;96164.53;5033978;28;20208;-71
2022/11/17 10:37:01;;;;;;;3.50;1.00;;;;;;;12.83;nan;96160.78;5033994;28;20193;-71
2022/11/17 10:39:37;;;;;;;3.60;1.07;;;;;;;12.85;nan;96168.50;5033273;28;20559;-71
2022/11/17 10:42:21;;;;;;;2.43;1.07;;;;;;;12.64;nan;96177.69;5033918;28;20235;-71
2022/11/17 10:44:52;;;;;;;2.13;0.90;;;;;;;12.53;nan;96171.63;5033522;28;20213;-71
2022/11/17 10:47:45;;;;;;;4.90;1.43;;;;;;;12.56;nan;96168.44;5033522;28;20189;-71
2022/11/17 10:50:18;;;;;;;1.93;0.80;;;;;;;12.56;nan;96170.28;5032724;28;20207;-70
2022/11/17 10:52:44;;;;;;;4.00;1.10;;;;;;;12.54;nan;96175.09;5033715;28;20189;-70
2022/11/17 10:55:32;;;;;;;3.03;1.00;;;;;;;12.52;nan;96167.38;5033411;28;20215;-70
2022/11/17 10:58:22;;;;;;;5.70;1.30;;;;;;;12.68;nan;96168.88;5033299;28;20196;-70
2022/11/17 11:00:56;;;;;;;2.90;1.00;;;;;;;12.76;nan;96162.97;5033545;28;20324;-71
2022/11/17 11:03:27;;;;;;;3.43;1.00;;;;;;;12.80;nan;96166.66;5033730;28;20303;-70
2022/11/17 11:06:21;;;;;;;2.77;0.80;;;;;;;12.90;nan;96163.94;5033845;28;20618;-70
2022/11/17 11:09:17;;;;;;;4.43;0.90;;;;;;;12.99;nan;96182.81;5033168;28;20638;-70
2022/11/17 11:11:48;;;;;;;4.53;1.07;;;;;;;12.96;nan;96167.31;5032590;28;20226;-70
2022/11/17 11:14:36;;;;;;;2.50;1.10;;;;;;;13.06;nan;96168.06;5048986;28;20200;-70
2022/11/17 11:17:11;;;;;;;2.67;1.10;;;;;;;13.14;nan;96178.16;5053030;28;20215;-70
2022/11/17 11:19:39;;;;;;;2.93;1.27;;;;;;;13.00;nan;96166.53;5053221;28;20256;-71
2022/11/17 11:22:31;;;;;;;2.60;1.10;;;;;;;13.02;nan;96167.03;5052536;28;20598;-70
2022/11/17 11:25:02;;;;;;;2.93;1.00;;;;;;;13.05;nan;96163.03;5052398;28;20186;-70
2022/11/17 11:27:38;;;;;;;3.73;1.03;;;;;;;13.15;nan;96161.06;5052553;28;20533;-70
2022/11/17 11:30:10;;;;;;;2.73;0.93;;;;;;;13.14;nan;96161.34;5052843;28;20192;-71
2022/11/17 11:33:19;;;;;;;4.07;0.80;;;;;;;13.16;nan;96164.53;5052794;28;20189;-71
2022/11/17 11:36:10;;;;;;;3.07;1.00;;;;;;;13.29;nan;96163.88;5049009;28;20208;-71
2022/11/17 11:38:51;;;;;;;3.13;0.90;;;;;;;13.19;nan;96174.63;5052856;28;20283;-70
2022/11/17 11:41:36;;;;;;;2.70;0.97;;;;;;;13.04;nan;96178.25;5052777;28;20312;-70
2022/11/17 11:44:21;;;;;;;3.60;0.93;;;;;;;13.03;nan;96176.63;5052303;28;20211;-70
2022/11/17 11:47:08;;;;;;;5.27;1.23;;;;;;;13.30;nan;96176.16;5052924;28;20617;-70
2022/11/17 11:49:41;;;;;;;3.10;1.13;;;;;;;13.27;nan;96176.69;5053658;28;20196;-70
2022/11/17 11:52:17;;;;;;;2.97;0.93;;;;;;;13.27;nan;96190.03;5057001;28;20235;-70
2022/11/17 11:55:14;;;;;;;3.33;1.03;;;;;;;13.21;nan;96180.50;5057349;28;20195;-70
2022/11/17 11:57:47;;;;;;;4.57;1.40;;;;;;;13.11;nan;96180.59;5056576;28;20351;-70
2022/11/17 12:00:16;;;;;;;4.90;1.20;;;;;;;13.00;nan;96171.88;5056592;28;20212;-70
2022/11/17 12:03:35;;;;;;;3.10;0.93;;;;;;;12.90;nan;96171.94;5056338;28;20703;-70
2022/11/17 12:09:30;;;;;;;2.87;1.00;;;;;;;12.86;nan;96173.56;5056699;28;20701;-70
2022/11/17 12:12:01;;;;;;;2.10;1.00;;;;;;;12.90;nan;96177.25;5056523;28;20244;-69
2022/11/17 12:14:29;;;;;;;2.90;1.13;;;;;;;12.80;nan;96169.31;5056040;28;20682;-70
2022/11/17 12:17:22;;;;;;;3.27;1.10;;;;;;;12.86;nan;96165.56;5056079;28;20608;-72
2022/11/17 12:19:51;;;;;;;4.23;1.40;;;;;;;12.87;nan;96158.34;5056270;28;20548;-70
2022/11/17 12:22:30;;;;;;;2.97;1.00;;;;;;;12.86;nan;96159.41;5056035;28;20239;-72
2022/11/17 12:25:05;;;;;;;4.70;1.10;;;;;;;12.93;nan;96170.56;5056231;28;20287;-72
2022/11/17 12:27:34;;;;;;;5.10;1.23;;;;;;;12.95;nan;96165.75;5055869;28;20286;-70
2022/11/17 12:30:03;;;;;;;5.87;1.23;;;;;;;12.98;nan;96170.56;5056208;28;20205;-71
2022/11/17 12:32:56;;;;;;;4.47;1.20;;;;;;;13.00;nan;96163.06;5056463;28;20213;-70
2022/11/17 12:35:29;;;;;;;2.70;1.30;;;;;;;13.17;nan;96163.47;5055110;28;20212;-70
2022/11/17 12:38:14;;;;;;;3.33;1.37;;;;;;;13.22;nan;96166.88;5055582;28;20189;-70
2022/11/17 12:40:53;;;;;;;3.57;1.30;;;;;;;13.16;nan;96176.00;5055772;28;20255;-70
2022/11/17 12:43:24;;;;;;;5.37;1.27;;;;;;;13.14;nan;96167.47;5056035;28;20310;-70
2022/11/17 12:46:19;;;;;;;5.20;1.10;;;;;;;13.21;nan;96175.16;5055840;28;20236;-70
2022/11/17 12:48:57;;;;;;;6.07;1.27;;;;;;;13.20;nan;96173.56;5055904;28;20215;-70